createdAt,value
2022-11-12T00:00:12.180Z,49.70
2022-11-12T00:01:12.487Z,50.10
2022-11-12T00:02:12.709Z,48.40
2022-11-12T00:03:13.097Z,49.60
2022-11-12T00:04:13.440Z,50.20
2022-11-12T00:05:13.725Z,49.20
2022-11-12T00:06:14.021Z,49.00
2022-11-12T00:07:14.431Z,47.30
2022-11-12T00:08:14.641Z,47.40
2022-11-12T00:09:14.925Z,47.30
2022-11-12T00:10:15.010Z,46.50
2022-11-12T00:11:15.367Z,47.00
2022-11-12T00:12:15.724Z,47.30
2022-11-12T00:13:16.017Z,46.70
2022-11-12T00:14:16.301Z,48.70
2022-11-12T00:15:16.745Z,46.20
2022-11-12T00:16:16.853Z,48.60
2022-11-12T00:17:17.192Z,49.10
2022-11-12T00:18:17.495Z,48.50
2022-11-12T00:19:17.789Z,48.00
2022-11-12T00:20:18.143Z,47.90
2022-11-12T00:21:18.413Z,48.00
2022-11-12T00:22:18.833Z,48.00
2022-11-12T00:23:18.967Z,46.40
2022-11-12T00:24:19.310Z,48.50
2022-11-12T00:25:19.653Z,46.70
2022-11-12T00:26:19.912Z,47.60
2022-11-12T00:27:20.240Z,46.20
2022-11-12T00:28:20.615Z,45.90
2022-11-12T00:29:20.900Z,47.20
2022-11-12T00:30:21.123Z,47.60
2022-11-12T00:31:21.391Z,45.50
2022-11-12T00:32:21.645Z,45.40
2022-11-12T00:33:22.024Z,47.00
2022-11-12T00:34:22.240Z,46.40
2022-11-12T00:35:22.962Z,46.60
2022-11-12T00:36:22.850Z,46.90
2022-11-12T00:37:23.212Z,46.40
2022-11-12T00:38:23.855Z,47.00
2022-11-12T00:39:23.681Z,49.40
2022-11-12T00:40:24.122Z,48.30
2022-11-12T00:41:24.343Z,48.50
2022-11-12T00:42:24.703Z,49.90
2022-11-12T00:43:24.876Z,48.40
2022-11-12T00:44:25.241Z,46.30
2022-11-12T00:45:25.485Z,46.20
2022-11-12T00:46:25.923Z,48.30
2022-11-12T00:47:26.240Z,46.80
2022-11-12T00:48:26.858Z,47.10
2022-11-12T00:49:26.718Z,49.40
2022-11-12T00:50:27.030Z,48.50
2022-11-12T00:51:27.268Z,53.00
2022-11-12T00:52:27.529Z,50.50
2022-11-12T00:53:27.829Z,48.80
2022-11-12T00:54:27.969Z,46.40
2022-11-12T00:55:28.349Z,46.80
2022-11-12T00:56:33.011Z,42.70
2022-11-12T00:57:29.974Z,45.20
2022-11-12T00:58:29.055Z,43.50
2022-11-12T00:59:29.321Z,44.30
2022-11-12T01:00:29.645Z,42.00
2022-11-12T01:01:29.938Z,43.80
2022-11-12T01:02:30.171Z,40.70
2022-11-12T01:03:30.447Z,39.40
2022-11-12T01:04:30.820Z,37.40
2022-11-12T01:05:30.905Z,36.70
2022-11-12T01:06:31.138Z,37.30
2022-11-12T01:07:31.590Z,36.60
2022-11-12T01:08:31.806Z,36.80
2022-11-12T01:09:32.038Z,37.40
2022-11-12T01:10:32.394Z,35.80
2022-11-12T01:11:32.610Z,36.00
2022-11-12T01:12:33.059Z,35.40
2022-11-12T01:13:33.240Z,37.20
2022-11-12T01:14:33.478Z,35.80
2022-11-12T01:15:33.777Z,35.70
2022-11-12T01:16:34.138Z,35.90
2022-11-12T01:17:34.432Z,35.40
2022-11-12T01:18:34.640Z,34.50
2022-11-12T01:19:34.911Z,34.50
2022-11-12T01:20:35.087Z,33.80
2022-11-12T01:21:35.425Z,34.90
2022-11-12T01:22:35.752Z,34.30
2022-11-12T01:23:36.070Z,34.80
2022-11-12T01:24:36.402Z,34.60
2022-11-12T01:25:36.705Z,34.10
2022-11-12T01:26:37.034Z,33.60
2022-11-12T01:27:37.227Z,33.90
2022-11-12T01:28:37.601Z,32.90
2022-11-12T01:29:37.783Z,33.20
2022-11-12T01:30:38.075Z,34.50
2022-11-12T01:31:38.331Z,35.50
2022-11-12T01:32:38.645Z,33.60
2022-11-12T01:33:39.032Z,33.20
2022-11-12T01:34:39.253Z,33.50
2022-11-12T01:35:39.445Z,31.70
2022-11-12T01:36:39.934Z,31.40
2022-11-12T01:37:40.016Z,31.60
2022-11-12T01:38:40.349Z,30.10
2022-11-12T01:39:40.666Z,30.80
2022-11-12T01:40:41.028Z,30.80
2022-11-12T01:41:41.227Z,30.30
2022-11-12T01:42:41.554Z,30.20
2022-11-12T01:43:41.790Z,30.70
2022-11-12T01:44:42.133Z,30.40
2022-11-12T01:45:42.443Z,29.50
2022-11-12T01:46:42.874Z,29.90
2022-11-12T01:47:43.018Z,29.40
2022-11-12T01:48:43.362Z,28.90
2022-11-12T01:49:48.738Z,28.30
2022-11-12T01:50:44.888Z,28.40
2022-11-12T01:51:44.195Z,27.50
2022-11-12T01:52:44.505Z,27.60
2022-11-12T01:53:44.810Z,28.20
2022-11-12T01:54:45.529Z,29.10
2022-11-12T01:55:45.462Z,28.60
2022-11-12T01:56:45.604Z,30.10
2022-11-12T01:57:45.900Z,29.60
2022-11-12T01:58:46.210Z,30.20
2022-11-12T01:59:46.522Z,30.40
2022-11-12T02:00:46.881Z,31.40
2022-11-12T02:01:47.145Z,31.60
2022-11-12T02:02:47.342Z,31.20
2022-11-12T02:03:47.703Z,30.90
2022-11-12T02:04:47.981Z,29.50
2022-11-12T02:05:48.200Z,29.10
2022-11-12T02:06:48.577Z,28.20
2022-11-12T02:07:48.793Z,28.40
2022-11-12T02:08:49.091Z,29.20
2022-11-12T02:09:49.478Z,29.20
2022-11-12T02:10:49.686Z,29.70
2022-11-12T02:11:49.920Z,28.20
2022-11-12T02:12:50.222Z,27.90
2022-11-12T02:13:50.559Z,28.10
2022-11-12T02:14:50.742Z,26.40
2022-11-12T02:15:51.110Z,27.00
2022-11-12T02:16:51.416Z,26.50
2022-11-12T02:17:51.733Z,26.10
2022-11-12T02:18:52.015Z,25.90
2022-11-12T02:19:52.301Z,26.60
2022-11-12T02:20:52.617Z,27.00
2022-11-12T02:21:52.933Z,26.60
2022-11-12T02:22:53.260Z,26.30
2022-11-12T02:23:53.542Z,25.30
2022-11-12T02:24:53.894Z,25.30
2022-11-12T02:25:54.193Z,26.10
2022-11-12T02:26:54.519Z,25.70
2022-11-12T02:27:54.823Z,25.40
2022-11-12T02:28:55.104Z,25.90
2022-11-12T02:29:55.398Z,25.10
2022-11-12T02:30:55.596Z,24.40
2022-11-12T02:31:55.911Z,24.40
2022-11-12T02:32:56.225Z,24.00
2022-11-12T02:33:56.586Z,24.20
2022-11-12T02:34:56.951Z,24.40
2022-11-12T02:35:57.138Z,24.20
2022-11-12T02:36:57.509Z,24.20
2022-11-12T02:37:57.821Z,24.30
2022-11-12T02:38:58.168Z,24.70
2022-11-12T02:39:58.472Z,24.80
2022-11-12T02:40:58.768Z,23.70
2022-11-12T02:41:59.081Z,24.80
2022-11-12T02:42:59.369Z,25.00
2022-11-12T02:43:59.736Z,24.70
2022-11-12T02:45:00.049Z,24.20
2022-11-12T02:46:00.407Z,25.40
2022-11-12T02:47:00.617Z,24.70
2022-11-12T02:48:01.011Z,25.50
2022-11-12T02:49:01.181Z,23.40
2022-11-12T02:50:01.440Z,23.40
2022-11-12T02:51:01.799Z,22.90
2022-11-12T02:52:02.009Z,23.70
2022-11-12T02:53:02.366Z,23.20
2022-11-12T02:54:02.542Z,23.10
2022-11-12T02:55:02.844Z,21.80
2022-11-12T02:56:03.161Z,22.40
2022-11-12T02:57:03.461Z,23.70
2022-11-12T02:58:03.764Z,22.60
2022-11-12T02:59:04.112Z,22.40
2022-11-12T03:00:04.475Z,21.90
2022-11-12T03:01:04.682Z,22.50
2022-11-12T03:02:04.931Z,22.40
2022-11-12T03:03:05.264Z,22.10
2022-11-12T03:04:05.596Z,22.00
2022-11-12T03:05:05.869Z,22.00
2022-11-12T03:06:06.154Z,22.60
2022-11-12T03:07:06.543Z,22.90
2022-11-12T03:08:06.829Z,23.40
2022-11-12T03:09:07.099Z,22.80
2022-11-12T03:10:07.430Z,23.90
2022-11-12T03:11:08.106Z,23.00
2022-11-12T03:12:07.945Z,22.90
2022-11-12T03:13:08.305Z,22.80
2022-11-12T03:14:08.624Z,23.10
2022-11-12T03:15:08.941Z,21.50
2022-11-12T03:16:09.393Z,22.30
2022-11-12T03:17:09.613Z,21.20
2022-11-12T03:18:09.989Z,21.70
2022-11-12T03:19:10.195Z,22.20
2022-11-12T03:20:10.441Z,22.20
2022-11-12T03:21:10.759Z,21.80
2022-11-12T03:22:11.080Z,21.90
2022-11-12T03:23:11.372Z,21.70
2022-11-12T03:24:11.735Z,22.10
2022-11-12T03:25:12.019Z,21.80
2022-11-12T03:26:12.326Z,22.10
2022-11-12T03:27:12.665Z,21.70
2022-11-12T03:28:13.010Z,21.10
2022-11-12T03:29:13.317Z,20.60
2022-11-12T03:30:13.696Z,21.40
2022-11-12T03:31:13.868Z,21.20
2022-11-12T03:32:14.237Z,20.90
2022-11-12T03:33:14.598Z,20.80
2022-11-12T03:34:14.850Z,20.50
2022-11-12T03:35:15.219Z,20.20
2022-11-12T03:36:15.451Z,20.60
2022-11-12T03:37:15.614Z,19.80
2022-11-12T03:38:15.971Z,19.90
2022-11-12T03:39:16.297Z,20.30
2022-11-12T03:40:16.593Z,19.40
2022-11-12T03:41:16.922Z,19.50
2022-11-12T03:42:17.200Z,19.80
2022-11-12T03:43:17.542Z,18.90
2022-11-12T03:44:17.893Z,19.40
2022-11-12T03:45:18.134Z,19.40
2022-11-12T03:46:18.526Z,19.20
2022-11-12T03:47:18.787Z,19.50
2022-11-12T03:48:18.996Z,19.00
2022-11-12T03:49:19.273Z,19.60
2022-11-12T03:50:19.627Z,19.70
2022-11-12T03:51:19.934Z,18.90
2022-11-12T03:52:20.308Z,18.80
2022-11-12T03:53:20.474Z,18.70
2022-11-12T03:54:20.820Z,20.70
2022-11-12T03:55:21.134Z,19.50
2022-11-12T03:56:21.479Z,19.30
2022-11-12T03:57:21.785Z,18.80
2022-11-12T03:58:22.032Z,19.00
2022-11-12T03:59:22.324Z,19.30
2022-11-12T04:00:22.546Z,19.10
2022-11-12T04:01:22.892Z,18.70
2022-11-12T04:02:23.159Z,18.40
2022-11-12T04:03:23.348Z,18.70
2022-11-12T04:04:23.653Z,19.70
2022-11-12T04:05:23.949Z,20.40
2022-11-12T04:06:24.305Z,19.50
2022-11-12T04:07:24.586Z,19.20
2022-11-12T04:08:25.273Z,19.50
2022-11-12T04:09:25.201Z,19.90
2022-11-12T04:10:25.535Z,19.80
2022-11-12T04:11:25.746Z,20.30
2022-11-12T04:12:26.105Z,19.50
2022-11-12T04:13:26.307Z,18.90
2022-11-12T04:14:26.601Z,18.60
2022-11-12T04:15:27.017Z,17.30
2022-11-12T04:16:27.208Z,17.90
2022-11-12T04:17:27.516Z,17.40
2022-11-12T04:18:28.177Z,16.30
2022-11-12T04:19:28.189Z,17.50
2022-11-12T04:20:28.404Z,17.50
2022-11-12T04:21:28.776Z,17.30
2022-11-12T04:22:29.119Z,17.70
2022-11-12T04:23:29.394Z,16.90
2022-11-12T04:24:29.744Z,17.20
2022-11-12T04:25:30.029Z,17.20
2022-11-12T04:26:30.429Z,16.40
2022-11-12T04:27:30.609Z,16.50
2022-11-12T04:28:30.910Z,16.10
2022-11-12T04:29:36.340Z,16.50
2022-11-12T04:30:32.504Z,16.50
2022-11-12T04:31:31.857Z,16.80
2022-11-12T04:32:32.169Z,16.80
2022-11-12T04:33:32.497Z,16.70
2022-11-12T04:34:32.845Z,17.00
2022-11-12T04:35:33.145Z,16.40
2022-11-12T04:36:33.486Z,16.30
2022-11-12T04:37:33.773Z,15.90
2022-11-12T04:38:34.105Z,16.10
2022-11-12T04:39:34.397Z,16.10
2022-11-12T04:40:34.732Z,15.80
2022-11-12T04:41:35.138Z,15.40
2022-11-12T04:42:35.420Z,15.70
2022-11-12T04:43:35.763Z,16.80
2022-11-12T04:44:35.969Z,15.20
2022-11-12T04:45:36.334Z,15.40
2022-11-12T04:46:36.592Z,15.60
2022-11-12T04:47:36.963Z,15.10
2022-11-12T04:48:37.398Z,15.20
2022-11-12T04:49:37.612Z,15.60
2022-11-12T04:50:37.836Z,15.10
2022-11-12T04:51:38.176Z,15.60
2022-11-12T04:52:38.464Z,14.80
2022-11-12T04:53:38.837Z,14.50
2022-11-12T04:54:39.105Z,14.70
2022-11-12T04:55:39.302Z,14.00
2022-11-12T04:56:39.637Z,13.70
2022-11-12T04:57:39.975Z,13.70
2022-11-12T04:58:40.345Z,14.00
2022-11-12T04:59:41.511Z,13.70
2022-11-12T05:00:40.813Z,14.10
2022-11-12T05:01:41.320Z,14.30
2022-11-12T05:02:41.505Z,13.70
2022-11-12T05:03:41.819Z,13.90
2022-11-12T05:04:42.157Z,13.70
2022-11-12T05:05:42.447Z,14.90
2022-11-12T05:06:42.836Z,14.60
2022-11-12T05:07:43.014Z,14.20
2022-11-12T05:08:43.267Z,15.50
2022-11-12T05:09:43.606Z,15.40
2022-11-12T05:10:43.900Z,16.00
2022-11-12T05:11:44.289Z,15.90
2022-11-12T05:12:44.537Z,15.40
2022-11-12T05:13:44.848Z,15.30
2022-11-12T05:14:45.264Z,14.70
2022-11-12T05:15:45.499Z,15.20
2022-11-12T05:16:45.803Z,15.80
2022-11-12T05:17:46.136Z,16.00
2022-11-12T05:18:46.427Z,16.20
2022-11-12T05:19:46.745Z,16.40
2022-11-12T05:20:47.078Z,16.60
2022-11-12T05:21:47.379Z,16.60
2022-11-12T05:23:04.508Z,17.10
2022-11-12T05:23:48.993Z,17.70
2022-11-12T05:24:48.316Z,18.80
2022-11-12T05:25:48.665Z,18.60
2022-11-12T05:26:48.917Z,19.20
2022-11-12T05:27:49.244Z,18.80
2022-11-12T05:28:49.581Z,19.50
2022-11-12T05:29:49.884Z,17.20
2022-11-12T05:30:50.188Z,16.90
2022-11-12T05:31:50.416Z,17.10
2022-11-12T05:32:50.771Z,17.80
2022-11-12T05:33:51.123Z,17.80
2022-11-12T05:34:51.423Z,18.70
2022-11-12T05:35:51.731Z,18.50
2022-11-12T05:36:52.028Z,18.40
2022-11-12T05:37:52.360Z,19.10
2022-11-12T05:38:52.664Z,19.10
2022-11-12T05:39:52.903Z,18.90
2022-11-12T05:40:53.270Z,18.60
2022-11-12T05:42:12.026Z,18.30
2022-11-12T05:42:54.877Z,17.30
2022-11-12T05:43:54.192Z,18.30
2022-11-12T05:44:54.638Z,18.40
2022-11-12T05:45:54.935Z,19.30
2022-11-12T05:46:55.106Z,18.90
2022-11-12T05:47:55.404Z,19.10
2022-11-12T05:48:55.577Z,18.80
2022-11-12T05:49:55.936Z,19.40
2022-11-12T05:51:12.600Z,19.90
2022-11-12T05:51:57.542Z,18.80
2022-11-12T05:52:56.854Z,19.00
2022-11-12T05:53:57.176Z,18.60
2022-11-12T05:54:57.548Z,19.30
2022-11-12T05:55:57.871Z,19.30
2022-11-12T05:56:58.200Z,20.00
2022-11-12T05:57:58.495Z,20.00
2022-11-12T05:58:58.707Z,20.10
2022-11-12T05:59:58.978Z,19.90
2022-11-12T06:00:59.665Z,19.60
2022-11-12T06:01:59.624Z,19.60
2022-11-12T06:02:59.883Z,19.40
2022-11-12T06:04:00.051Z,18.70
2022-11-12T06:05:00.381Z,18.70
2022-11-12T06:06:00.769Z,18.50
2022-11-12T06:07:01.070Z,19.30
2022-11-12T06:08:01.279Z,18.30
2022-11-12T06:09:01.507Z,18.20
2022-11-12T06:10:01.792Z,18.10
2022-11-12T06:11:02.079Z,17.10
2022-11-12T06:12:02.341Z,16.50
2022-11-12T06:13:02.683Z,17.30
2022-11-12T06:14:03.017Z,17.20
2022-11-12T06:15:03.249Z,17.10
2022-11-12T06:16:03.473Z,17.00
2022-11-12T06:17:03.882Z,17.30
2022-11-12T06:18:04.117Z,18.10
2022-11-12T06:19:04.500Z,17.70
2022-11-12T06:20:04.679Z,17.30
2022-11-12T06:21:05.037Z,18.00
2022-11-12T06:22:05.320Z,16.40
2022-11-12T06:23:05.512Z,17.20
2022-11-12T06:24:05.772Z,17.50
2022-11-12T06:25:05.996Z,17.70
2022-11-12T06:26:06.346Z,18.20
2022-11-12T06:27:06.617Z,19.10
2022-11-12T06:28:06.963Z,19.10
2022-11-12T06:29:07.167Z,19.20
2022-11-12T06:30:07.402Z,18.80
2022-11-12T06:31:07.642Z,18.40
2022-11-12T06:32:07.915Z,18.60
2022-11-12T06:33:08.149Z,18.00
2022-11-12T06:34:08.361Z,18.00
2022-11-12T06:35:08.666Z,18.40
2022-11-12T06:36:13.389Z,18.20
2022-11-12T06:37:09.947Z,18.80
2022-11-12T06:38:11.357Z,18.80
2022-11-12T06:39:09.724Z,19.70
2022-11-12T06:40:09.973Z,18.50
2022-11-12T06:41:10.206Z,19.10
2022-11-12T06:42:10.666Z,18.10
2022-11-12T06:43:10.809Z,18.20
2022-11-12T06:44:12.140Z,18.60
2022-11-12T06:45:11.316Z,17.90
2022-11-12T06:46:11.556Z,17.70
2022-11-12T06:47:11.865Z,18.50
2022-11-12T06:48:12.074Z,18.00
2022-11-12T06:49:12.359Z,17.80
2022-11-12T06:50:13.046Z,17.80
2022-11-12T06:51:12.860Z,17.90
2022-11-12T06:52:16.548Z,17.70
2022-11-12T06:53:13.486Z,18.00
2022-11-12T06:54:13.730Z,17.70
2022-11-12T06:55:13.960Z,17.60
2022-11-12T06:56:14.233Z,18.00
2022-11-12T06:57:14.440Z,17.00
2022-11-12T06:58:14.709Z,17.50
2022-11-12T06:59:14.954Z,17.60
2022-11-12T07:00:15.266Z,17.60
2022-11-12T07:01:15.519Z,17.20
2022-11-12T07:02:15.736Z,17.50
2022-11-12T07:03:16.003Z,17.90
2022-11-12T07:04:23.197Z,18.00
2022-11-12T07:05:16.599Z,18.10
2022-11-12T07:06:16.840Z,19.80
2022-11-12T07:07:19.893Z,19.20
2022-11-12T07:08:17.369Z,18.70
2022-11-12T07:09:17.717Z,17.80
2022-11-12T07:10:17.872Z,18.40
2022-11-12T07:11:18.114Z,18.20
2022-11-12T07:12:18.370Z,18.10
2022-11-12T07:13:18.759Z,18.60
2022-11-12T07:14:18.834Z,18.10
2022-11-12T07:15:19.082Z,18.20
2022-11-12T07:16:19.324Z,17.40
2022-11-12T07:17:19.584Z,17.60
2022-11-12T07:18:19.859Z,17.70
2022-11-12T07:19:20.086Z,17.90
2022-11-12T07:20:20.417Z,17.90
2022-11-12T07:21:20.729Z,18.80
2022-11-12T07:22:21.422Z,18.70
2022-11-12T07:23:22.401Z,18.20
2022-11-12T07:24:21.488Z,18.70
2022-11-12T07:25:22.043Z,18.90
2022-11-12T07:26:22.060Z,19.10
2022-11-12T07:27:22.315Z,20.80
2022-11-12T07:28:22.616Z,20.10
2022-11-12T07:29:42.785Z,20.60
2022-11-12T07:30:24.159Z,20.60
2022-11-12T07:31:23.804Z,20.70
2022-11-12T07:32:23.753Z,22.10
2022-11-12T07:33:23.985Z,21.00
2022-11-12T07:34:24.249Z,19.80
2022-11-12T07:35:24.483Z,19.30
2022-11-12T07:36:24.755Z,20.10
2022-11-12T07:37:25.027Z,20.00
2022-11-12T07:38:25.648Z,20.00
2022-11-12T07:39:25.882Z,20.80
2022-11-12T07:40:25.796Z,21.70
2022-11-12T07:41:26.138Z,20.40
2022-11-12T07:42:26.299Z,20.80
2022-11-12T07:43:26.545Z,19.90
2022-11-12T07:44:26.793Z,20.70
2022-11-12T07:45:27.157Z,21.20
2022-11-12T07:46:27.348Z,21.60
2022-11-12T07:47:27.617Z,20.80
2022-11-12T07:48:28.092Z,20.50
2022-11-12T07:49:28.909Z,20.50
2022-11-12T07:50:28.440Z,20.40
2022-11-12T07:51:28.705Z,20.80
2022-11-12T07:52:29.001Z,24.00
2022-11-12T07:53:29.278Z,25.30
2022-11-12T07:54:29.655Z,24.30
2022-11-12T07:55:30.293Z,24.40
2022-11-12T07:56:30.139Z,24.80
2022-11-12T07:57:30.376Z,23.90
2022-11-12T07:58:30.660Z,24.20
2022-11-12T07:59:30.947Z,24.10
2022-11-12T08:00:31.181Z,23.90
2022-11-12T08:01:31.564Z,24.30
2022-11-12T08:02:31.753Z,24.50
2022-11-12T08:03:31.994Z,26.50
2022-11-12T08:04:32.246Z,26.80
2022-11-12T08:05:32.497Z,28.00
2022-11-12T08:06:32.772Z,29.00
2022-11-12T08:07:33.235Z,29.90
2022-11-12T08:08:33.314Z,30.00
2022-11-12T08:09:33.590Z,30.20
2022-11-12T08:10:33.881Z,30.00
2022-11-12T08:11:34.134Z,30.50
2022-11-12T08:12:34.389Z,29.80
2022-11-12T08:13:34.709Z,29.50
2022-11-12T08:14:34.953Z,29.50
2022-11-12T08:15:35.202Z,28.70
2022-11-12T08:16:35.469Z,27.90
2022-11-12T08:17:35.710Z,27.60
2022-11-12T08:18:35.962Z,27.10
2022-11-12T08:19:36.268Z,27.00
2022-11-12T08:20:36.524Z,27.40
2022-11-12T08:21:36.760Z,27.30
2022-11-12T08:22:37.044Z,27.10
2022-11-12T08:23:37.322Z,25.40
2022-11-12T08:24:37.613Z,28.30
2022-11-12T08:25:37.899Z,28.80
2022-11-12T08:26:38.170Z,28.20
2022-11-12T08:27:38.470Z,27.00
2022-11-12T08:28:38.756Z,25.90
2022-11-12T08:29:39.317Z,26.00
2022-11-12T08:30:39.326Z,25.70
2022-11-12T08:31:39.579Z,25.00
2022-11-12T08:32:39.851Z,23.40
2022-11-12T08:33:40.101Z,23.50
2022-11-12T08:34:40.342Z,24.50
2022-11-12T08:35:40.573Z,25.30
2022-11-12T08:36:40.950Z,23.50
2022-11-12T08:37:41.160Z,23.30
2022-11-12T08:38:41.425Z,22.60
2022-11-12T08:39:41.777Z,22.50
2022-11-12T08:40:41.992Z,22.30
2022-11-12T08:41:42.267Z,23.40
2022-11-12T08:42:42.512Z,22.60
2022-11-12T08:43:42.774Z,23.20
2022-11-12T08:44:43.021Z,23.30
2022-11-12T08:45:43.281Z,23.20
2022-11-12T08:46:43.542Z,21.60
2022-11-12T08:47:44.220Z,22.10
2022-11-12T08:48:44.126Z,21.90
2022-11-12T08:49:48.073Z,21.10
2022-11-12T08:50:44.712Z,19.80
2022-11-12T08:51:45.020Z,20.40
2022-11-12T08:52:45.269Z,21.50
2022-11-12T08:53:45.582Z,19.70
2022-11-12T08:54:45.793Z,19.40
2022-11-12T08:55:46.103Z,22.90
2022-11-12T08:56:46.345Z,19.20
2022-11-12T08:57:46.622Z,17.80
2022-11-12T08:58:46.858Z,17.80
2022-11-12T08:59:47.141Z,18.10
2022-11-12T09:00:47.486Z,17.80
2022-11-12T09:01:47.794Z,17.80
2022-11-12T09:02:47.986Z,18.20
2022-11-12T09:03:48.722Z,17.50
2022-11-12T09:04:48.543Z,17.80
2022-11-12T09:05:48.832Z,17.60
2022-11-12T09:06:53.732Z,20.20
2022-11-12T09:07:51.139Z,21.60
2022-11-12T09:08:49.661Z,22.80
2022-11-12T09:09:49.939Z,24.00
2022-11-12T09:10:50.189Z,25.10
2022-11-12T09:11:50.447Z,24.60
2022-11-12T09:12:50.765Z,25.30
2022-11-12T09:13:51.147Z,26.00
2022-11-12T09:14:53.439Z,25.80
2022-11-12T09:15:51.614Z,26.90
2022-11-12T09:16:51.898Z,27.60
2022-11-12T09:17:52.127Z,28.50
2022-11-12T09:18:52.828Z,27.20
2022-11-12T09:19:52.713Z,26.40
2022-11-12T09:20:52.948Z,26.60
2022-11-12T09:21:54.049Z,25.70
2022-11-12T09:22:53.516Z,26.00
2022-11-12T09:23:53.754Z,26.10
2022-11-12T09:24:54.002Z,27.70
2022-11-12T09:25:54.289Z,27.20
2022-11-12T09:26:54.625Z,27.20
2022-11-12T09:27:54.842Z,28.50
2022-11-12T09:28:55.120Z,28.40
2022-11-12T09:29:55.380Z,27.30
2022-11-12T09:30:55.627Z,27.10
2022-11-12T09:31:55.915Z,29.30
2022-11-12T09:32:56.191Z,26.60
2022-11-12T09:33:56.456Z,29.20
2022-11-12T09:34:56.697Z,25.20
2022-11-12T09:35:56.943Z,26.10
2022-11-12T09:36:57.206Z,26.30
2022-11-12T09:37:57.499Z,24.10
2022-11-12T09:38:57.773Z,23.60
2022-11-12T09:39:58.042Z,23.40
2022-11-12T09:40:58.347Z,24.00
2022-11-12T09:42:01.954Z,22.90
2022-11-12T09:42:58.905Z,21.30
2022-11-12T09:43:59.145Z,21.10
2022-11-12T09:44:59.364Z,21.10
2022-11-12T09:46:26.159Z,21.50
2022-11-12T09:47:01.323Z,22.30
2022-11-12T09:48:00.134Z,22.30
2022-11-12T09:49:00.409Z,22.30
2022-11-12T09:50:00.760Z,21.10
2022-11-12T09:51:01.014Z,21.50
2022-11-12T09:52:01.248Z,20.60
2022-11-12T09:53:01.526Z,20.00
2022-11-12T09:54:01.789Z,18.40
2022-11-12T09:55:02.060Z,18.90
2022-11-12T09:56:02.381Z,18.80
2022-11-12T09:57:02.720Z,19.00
2022-11-12T09:58:02.958Z,19.30
2022-11-12T09:59:03.258Z,19.70
2022-11-12T10:00:03.461Z,19.20
2022-11-12T10:01:03.780Z,18.80
2022-11-12T10:02:04.142Z,19.00
2022-11-12T10:03:04.285Z,19.40
2022-11-12T10:04:04.602Z,19.80
2022-11-12T10:05:04.832Z,18.60
2022-11-12T10:06:10.242Z,18.60
2022-11-12T10:07:06.439Z,18.90
2022-11-12T10:08:05.615Z,19.20
2022-11-12T10:09:05.895Z,18.50
2022-11-12T10:10:06.199Z,18.30
2022-11-12T10:11:06.524Z,18.70
2022-11-12T10:12:06.712Z,19.00
2022-11-12T10:13:06.970Z,20.90
2022-11-12T10:14:07.262Z,20.70
2022-11-12T10:15:07.526Z,21.20
2022-11-12T10:16:07.813Z,23.60
2022-11-12T10:17:08.137Z,23.10
2022-11-12T10:18:08.455Z,22.90
2022-11-12T10:19:08.738Z,23.90
2022-11-12T10:20:08.952Z,24.80
2022-11-12T10:21:09.233Z,24.30
2022-11-12T10:22:10.081Z,23.70
2022-11-12T10:23:09.771Z,23.40
2022-11-12T10:24:10.090Z,24.00
2022-11-12T10:25:10.390Z,24.40
2022-11-12T10:26:10.641Z,23.80
2022-11-12T10:27:11.266Z,24.20
2022-11-12T10:28:11.245Z,26.80
2022-11-12T10:29:11.488Z,26.70
2022-11-12T10:30:11.727Z,27.40
2022-11-12T10:31:12.072Z,25.90
2022-11-12T10:32:12.307Z,25.40
2022-11-12T10:33:12.621Z,23.70
2022-11-12T10:34:13.197Z,21.70
2022-11-12T10:35:13.167Z,23.90
2022-11-12T10:36:14.190Z,26.60
2022-11-12T10:37:13.753Z,27.90
2022-11-12T10:38:14.199Z,25.10
2022-11-12T10:39:14.328Z,23.70
2022-11-12T10:40:14.577Z,23.50
2022-11-12T10:41:15.762Z,22.80
2022-11-12T10:42:16.970Z,21.60
2022-11-12T10:43:15.469Z,21.70
2022-11-12T10:44:15.828Z,21.70
2022-11-12T10:45:16.042Z,21.90
2022-11-12T10:46:16.285Z,23.60
2022-11-12T10:47:16.571Z,24.20
2022-11-12T10:48:16.918Z,23.90
2022-11-12T10:49:17.160Z,21.90
2022-11-12T10:50:17.514Z,21.90
2022-11-12T10:51:17.676Z,22.20
2022-11-12T10:52:18.005Z,23.20
2022-11-12T10:53:18.233Z,22.70
2022-11-12T10:54:18.470Z,23.80
2022-11-12T10:55:18.746Z,23.40
2022-11-12T10:56:19.043Z,24.50
2022-11-12T10:57:19.358Z,22.70
2022-11-12T10:58:19.640Z,23.80
2022-11-12T10:59:19.918Z,21.60
2022-11-12T11:00:20.244Z,23.80
2022-11-12T11:01:20.649Z,23.40
2022-11-12T11:02:20.781Z,23.50
2022-11-12T11:03:21.064Z,22.10
2022-11-12T11:04:21.245Z,21.20
2022-11-12T11:05:21.621Z,22.20
2022-11-12T11:06:21.847Z,21.30
2022-11-12T11:07:22.544Z,20.60
2022-11-12T11:08:22.463Z,21.70
2022-11-12T11:09:22.757Z,21.00
2022-11-12T11:10:22.993Z,21.00
2022-11-12T11:11:23.298Z,20.00
2022-11-12T11:12:23.546Z,20.90
2022-11-12T11:13:23.867Z,20.40
2022-11-12T11:14:24.068Z,20.20
2022-11-12T11:15:24.310Z,20.10
2022-11-12T11:16:24.578Z,20.60
2022-11-12T11:17:24.832Z,19.80
2022-11-12T11:18:25.471Z,18.90
2022-11-12T11:19:25.606Z,20.30
2022-11-12T11:20:25.702Z,20.60
2022-11-12T11:21:25.916Z,20.60
2022-11-12T11:22:26.231Z,21.60
2022-11-12T11:23:26.530Z,20.20
2022-11-12T11:24:27.724Z,21.90
2022-11-12T11:25:26.997Z,22.20
2022-11-12T11:26:27.258Z,22.30
2022-11-12T11:27:27.587Z,21.60
2022-11-12T11:28:28.112Z,21.90
2022-11-12T11:29:28.023Z,21.80
2022-11-12T11:30:28.316Z,21.90
2022-11-12T11:31:28.590Z,21.20
2022-11-12T11:32:32.085Z,21.40
2022-11-12T11:33:30.159Z,21.30
2022-11-12T11:34:29.421Z,21.20
2022-11-12T11:35:29.683Z,21.90
2022-11-12T11:36:29.972Z,21.40
2022-11-12T11:37:30.252Z,20.50
2022-11-12T11:38:30.530Z,19.40
2022-11-12T11:39:30.773Z,19.40
2022-11-12T11:40:31.092Z,20.30
2022-11-12T11:41:31.315Z,20.60
2022-11-12T11:42:31.556Z,20.50
2022-11-12T11:43:31.913Z,20.20
2022-11-12T11:44:32.393Z,20.90
2022-11-12T11:45:32.428Z,21.30
2022-11-12T11:46:32.706Z,22.30
2022-11-12T11:47:50.417Z,23.00
2022-11-12T11:48:34.294Z,22.20
2022-11-12T11:49:33.714Z,21.90
2022-11-12T11:50:33.793Z,21.70
2022-11-12T11:51:34.193Z,21.20
2022-11-12T11:52:34.387Z,22.10
2022-11-12T11:53:34.667Z,22.20
2022-11-12T11:54:35.099Z,22.70
2022-11-12T11:55:35.183Z,22.00
2022-11-12T11:56:35.785Z,20.90
2022-11-12T11:57:35.767Z,22.00
2022-11-12T11:58:36.315Z,22.40
2022-11-12T11:59:36.281Z,22.80
2022-11-12T12:00:36.634Z,23.00
2022-11-12T12:01:36.989Z,23.60
2022-11-12T12:02:37.203Z,26.50
2022-11-12T12:03:37.483Z,24.70
2022-11-12T12:04:37.723Z,23.20
2022-11-12T12:05:37.960Z,33.50
2022-11-12T12:06:38.274Z,41.70
2022-11-12T12:07:38.471Z,22.40
2022-11-12T12:08:38.757Z,23.10
2022-11-12T12:09:39.029Z,22.20
2022-11-12T12:11:06.386Z,21.80
2022-11-12T12:11:40.619Z,23.00
2022-11-12T12:12:39.946Z,20.60
2022-11-12T12:13:40.277Z,19.60
2022-11-12T12:14:40.615Z,20.60
2022-11-12T12:15:40.735Z,20.90
2022-11-12T12:16:41.007Z,21.70
2022-11-12T12:17:41.323Z,22.50
2022-11-12T12:18:41.558Z,22.50
2022-11-12T12:19:41.862Z,23.00
2022-11-12T12:20:42.297Z,22.70
2022-11-12T12:21:42.441Z,23.50
2022-11-12T12:22:42.723Z,24.70
2022-11-12T12:23:42.971Z,24.50
2022-11-12T12:24:43.226Z,24.20
2022-11-12T12:25:43.491Z,25.60
2022-11-12T12:26:43.726Z,25.40
2022-11-12T12:27:43.996Z,25.40
2022-11-12T12:28:44.308Z,25.70
2022-11-12T12:29:44.530Z,25.40
2022-11-12T12:30:44.808Z,26.70
2022-11-12T12:31:45.051Z,26.80
2022-11-12T12:32:45.320Z,25.90
2022-11-12T12:33:45.596Z,24.60
2022-11-12T12:34:45.858Z,24.70
2022-11-12T12:35:46.155Z,24.20
2022-11-12T12:36:46.430Z,24.10
2022-11-12T12:37:46.682Z,24.80
2022-11-12T12:38:46.943Z,24.80
2022-11-12T12:39:48.224Z,25.30
2022-11-12T12:40:47.521Z,26.60
2022-11-12T12:41:47.803Z,25.10
2022-11-12T12:42:48.027Z,25.30
2022-11-12T12:43:48.331Z,25.60
2022-11-12T12:44:48.644Z,24.80
2022-11-12T12:45:48.855Z,25.80
2022-11-12T12:46:49.100Z,26.80
2022-11-12T12:47:49.352Z,26.70
2022-11-12T12:48:49.614Z,27.00
2022-11-12T12:49:49.976Z,26.90
2022-11-12T12:50:50.188Z,26.10
2022-11-12T12:51:55.637Z,26.60
2022-11-12T12:52:51.726Z,27.00
2022-11-12T12:53:51.028Z,26.20
2022-11-12T12:54:51.256Z,26.10
2022-11-12T12:55:51.503Z,25.10